Airfield :
LOGIN :

Register | Disclaimer

   EN    FR    IT 

 










Legend :    VFR   Marginal VFR   IFR   Intensive IFR   Very Intensive IFR
Visi :
Ceiling :
>= 8 km
>= 3000ft
5 to 8 km
1000 to 3000 ft
1500m to 5 km
500 to 1000 ft
800 to 1500m
200 to 500 ft
< 800m
< 200 ft
Symbols :   Thunderstorms  Fog  Heavy snow  Heavy precipitations  Wind > 20 kt
SIGMETs :     Misc.  Thunderstorms  Icing  Turbulence  Mountain Waves  Volcanic Ashes






- Airport Elevation : 1090 ft
- IATA code : CFE


LFLC - Clermont-Ferrand Auvergne

CURRENT METAR :
  • 190030Z AUTO 24004KT CAVOK 20/15 Q1019 NOSIG

EXPIRED METARs :
  • 190000Z AUTO 28003KT CAVOK 20/15 Q1019 NOSIG
  • 182330Z AUTO VRB02KT CAVOK 19/15 Q1020 NOSIG
  • 182300Z AUTO 00000KT CAVOK 20/15 Q1020 NOSIG
  • 182230Z AUTO VRB02KT CAVOK 21/15 Q1019 NOSIG
  • 182200Z AUTO 25002KT CAVOK 21/16 Q1019 NOSIG
  • 182130Z AUTO VRB02KT CAVOK 21/15 Q1019 NOSIG
  • 182100Z AUTO 27003KT CAVOK 22/15 Q1019 NOSIG
  • 182030Z AUTO 28003KT CAVOK 25/15 Q1019 NOSIG
  • 182000Z AUTO 29004KT CAVOK 25/16 Q1019 NOSIG
  • 181930Z AUTO 34004KT CAVOK 26/16 Q1019 NOSIG

TAF TAF LFLC
Valid from the 19 at 00:00 until the 20 at 00:00 UTC


182300Z 1900/1924 VRB03KT CAVOK
BECMG 1904/1906 18005KT
TEMPO 1906/1920 FEW090TCU
PROB30
TEMPO 1906/1912 25015KT SHRA SCT090TCU
BECMG 1912/1914 06006KT
PROB30
TEMPO 1914/1919 VRB15KT 4000 TSRA SCT080CB
BECMG 1922/1924 VRB02KT
ATIS : +33 4 73 62 74 38



MET'MAP, your aeronautical weather chart ! - Copyright ORBIFLY December 2007 - Disclaimer

ORBIFLY MET'MAP TEAM :

Programming & Development : Alexandra Zaïnal
Original concept : Baudouin d'Aumeries
Technical & hardware support : Manuel Goepfert
Assistance : Marc-Olivier Méhu




SOURCES & CREDITS :

   NOAA